Latest Weather Observations for Cummins Airport

IDS60801

Issued at 8:31 am CDT Saturday 6 February 2016 (issued every 30 minutes, with the page automatically refreshed every 10 minutes)

About weather observations | Map of weather stations | Latest weather observations for SA | Other Formats
Station Details ID: 018217 Name: CUMMINS AERO Lat: -34.25 Lon: 135.71 Height: 60.11 m
Data from the previous 72 hours. | See also: Recent months at Cummins Airport
Date/Time
CDT
Temp
°C
App
Temp
°C
Dew
Point
Rel
Hum
%
Delta-T
°C
Wind Press
QNH
hPa
Press
MSL
hPa
Rain
since 9 am
mm
Dir
 
Spd
km/h
Gust
km/h
Spd
kts
Gust
kts
06/08:30am 16.5 16.1 16.3 99 0.1 SSW 13 15 7 8 1016.2 1016.0 0.0
06/08:00am 15.2 14.8 15.2 100 0.0 S 11 13 6 7 1016.0 1015.8 0.0
06/07:30am 14.2 13.5 14.2 100 0.0 SSW 11 13 6 7 1016.0 1015.8 0.0
06/07:00am 13.7 13.2 13.7 100 0.0 S 9 13 5 7 1015.8 1015.6 0.0
06/06:30am 14.5 13.9 14.5 100 0.0 SSW 11 13 6 7 1015.6 1015.4 0.0
06/06:00am 14.4 14.5 14.4 100 0.0 S 7 9 4 5 1015.3 1015.1 0.0
06/05:30am 14.4 13.3 14.4 100 0.0 S 13 15 7 8 1015.2 1015.0 0.0
06/05:00am 13.1 12.0 13.1 100 0.0 SSW 11 13 6 7 1015.3 1015.1 0.0
06/04:30am 12.5 10.8 12.5 100 0.0 SSW 13 17 7 9 1015.0 1014.8 0.0
06/04:00am 12.0 10.2 12.0 100 0.0 SSW 13 15 7 8 1014.8 1014.6 0.0
06/03:30am 12.5 11.2 12.5 100 0.0 S 11 13 6 7 1015.1 1014.9 0.0
06/03:00am 12.7 11.1 12.7 100 0.0 SSW 13 15 7 8 1015.4 1015.2 0.0
06/02:30am 13.1 11.6 13.1 100 0.0 SSW 13 17 7 9 1015.8 1015.6 0.0
06/02:00am 13.4 12.4 13.4 100 0.0 S 11 13 6 7 1016.2 1016.0 0.0
06/01:30am 13.1 12.3 12.9 99 0.1 S 9 9 5 5 1016.3 1016.1 0.0
06/01:00am 13.7 12.7 13.4 98 0.2 SSW 11 15 6 8 1016.8 1016.6 0.0
06/12:30am 14.6 12.6 14.0 96 0.3 SSW 17 20 9 11 1017.2 1017.0 0.0
06/12:00am 14.6 12.6 14.0 96 0.3 SSW 17 20 9 11 1017.2 1017.0 0.0
 
Date/Time
CDT
Temp
°C
App
Temp
°C
Dew
Point
Rel
Hum
%
Delta-T
°C
Wind Press
QNH
hPa
Press
MSL
hPa
Rain
since 9 am
mm
Dir
 
Spd
km/h
Gust
km/h
Spd
kts
Gust
kts
05/11:30pm 14.2 12.8 13.4 95 0.4 SW 13 17 7 9 1017.4 1017.2 0.0
05/11:00pm 14.4 13.7 13.3 93 0.6 S 9 13 5 7 1017.6 1017.4 0.0
05/10:30pm 14.8 14.0 13.0 89 1.0 S 9 11 5 6 1017.8 1017.6 0.0
05/10:00pm 16.0 13.8 13.3 84 1.5 S 17 19 9 10 1017.6 1017.4 0.0
05/09:30pm 16.8 15.3 13.1 79 2.1 S 13 17 7 9 1017.5 1017.3 0.0
05/09:00pm 18.3 16.1 13.2 72 2.9 SSE 17 24 9 13 1017.1 1016.9 0.0
05/08:30pm 19.1 15.9 11.4 61 4.2 SSE 19 28 10 15 1016.9 1016.7 0.0
05/08:00pm 20.3 17.0 11.5 57 4.9 SSE 20 26 11 14 1016.8 1016.6 0.0
05/07:30pm 21.0 17.1 10.8 52 5.6 SE 22 32 12 17 1016.5 1016.3 0.0
05/07:00pm 21.2 16.5 10.7 51 5.8 SE 26 37 14 20 1016.3 1016.1 0.0
05/06:30pm 22.0 17.2 10.2 47 6.4 SSE 26 32 14 17 1016.2 1016.0 0.0
05/06:00pm 22.2 17.5 10.7 48 6.3 SSE 26 35 14 19 1016.1 1015.9 0.0
05/05:30pm 22.9 18.4 11.3 48 6.5 SSE 26 33 14 18 1016.3 1016.1 0.0
05/05:00pm 23.1 18.9 11.2 47 6.7 SSE 24 35 13 19 1016.4 1016.2 0.0
05/04:30pm 23.2 18.9 11.9 49 6.4 SE 26 37 14 20 1016.5 1016.3 0.0
05/04:00pm 23.6 19.7 12.0 48 6.6 SE 24 30 13 16 1016.7 1016.5 0.0
05/03:30pm 23.7 20.0 12.7 50 6.3 SE 24 35 13 19 1017.0 1016.8 0.0
05/03:00pm 23.7 19.5 12.4 49 6.5 SE 26 35 14 19 1017.2 1017.0 0.0
05/02:30pm 23.7 19.7 11.7 47 6.8 SE 24 35 13 19 1017.5 1017.3 0.0
05/02:00pm 22.8 18.7 11.5 49 6.3 SE 24 32 13 17 1017.8 1017.6 0.0
05/01:30pm 22.5 18.1 11.6 50 6.1 SE 26 35 14 19 1018.1 1017.9 0.0
05/01:00pm 22.8 18.6 12.4 52 5.9 SE 26 35 14 19 1018.5 1018.3 0.0
05/12:30pm 22.0 18.2 11.1 50 6.0 SE 22 32 12 17 1018.7 1018.5 0.0
05/12:00pm 22.8 19.1 12.7 53 5.8 SE 24 32 13 17 1019.0 1018.8 0.0
05/11:30am 21.4 16.5 11.4 53 5.5 SE 28 35 15 19 1019.1 1018.9 0.0
05/11:00am 20.8 15.9 11.4 55 5.2 SE 28 35 15 19 1019.3 1019.1 0.0
05/10:30am 20.3 16.2 11.5 57 4.9 SE 24 35 13 19 1019.8 1019.6 0.0
05/10:00am 19.7 15.2 11.5 59 4.5 ESE 26 33 14 18 1020.1 1019.9 0.0
05/09:30am 18.9 14.3 12.2 65 3.7 ESE 28 35 15 19 1020.1 1019.9 0.0
05/09:00am 17.8 12.2 11.4 66 3.5 SE 32 44 17 24 1020.0 1019.8 0.0
05/08:30am 17.1 12.3 11.6 70 3.0 SE 28 41 15 22 1019.8 1019.6 0.0
05/08:00am 16.2 14.2 12.6 79 2.0 SE 15 22 8 12 1019.9 1019.7 0.0
05/07:30am 12.6 11.6 11.0 90 0.8 SW 7 9 4 5 1019.7 1019.5 0.0
05/07:00am 12.8 11.0 10.9 88 1.0 SSE 11 13 6 7 1019.4 1019.2 0.0
05/06:30am 14.2 11.9 11.7 85 1.3 SSE 15 22 8 12 1019.3 1019.1 0.0
05/06:00am 14.2 12.3 11.7 85 1.3 SSE 13 19 7 10 1018.9 1018.7 0.0
05/05:30am 14.7 12.4 11.8 83 1.6 SSE 15 22 8 12 1018.8 1018.6 0.0
05/05:00am 14.7 12.0 11.7 82 1.6 SSE 17 22 9 12 1018.8 1018.6 0.0
05/04:30am 14.0 11.7 11.7 86 1.2 SSE 15 20 8 11 1018.8 1018.6 0.0
05/04:00am 14.4 12.7 11.2 81 1.7 S 11 17 6 9 1018.9 1018.7 0.0
05/03:30am 15.1 12.3 11.5 79 1.9 SSE 17 24 9 13 1018.9 1018.7 0.0
05/03:00am 15.3 11.6 11.5 78 2.0 SE 22 32 12 17 1018.8 1018.6 0.0
05/02:30am 15.2 11.9 11.6 79 1.9 SSE 20 26 11 14 1019.3 1019.1 0.0
05/02:00am 15.4 12.0 11.4 77 2.2 SSE 20 28 11 15 1019.5 1019.3 0.0
05/01:30am 15.4 12.0 11.4 77 2.1 SSE 20 28 11 15 1019.6 1019.4 0.0
05/01:00am 15.7 12.0 11.5 76 2.3 SSE 22 30 12 16 1019.8 1019.6 0.0
05/12:30am 15.8 11.7 11.6 76 2.3 SSE 24 30 13 16 1019.8 1019.6 0.0
05/12:00am 16.6 12.3 12.2 75 2.4 SSE 26 35 14 19 1019.9 1019.7 0.0
 
Date/Time
CDT
Temp
°C
App
Temp
°C
Dew
Point
Rel
Hum
%
Delta-T
°C
Wind Press
QNH
hPa
Press
MSL
hPa
Rain
since 9 am
mm
Dir
 
Spd
km/h
Gust
km/h
Spd
kts
Gust
kts
04/11:30pm 16.3 12.5 12.5 78 2.1 S 24 32 13 17 1020.0 1019.8 0.0
04/11:00pm 16.3 13.0 12.7 79 2.0 S 22 30 12 16 1020.2 1020.0 0.0
04/10:30pm 16.1 12.4 12.7 80 1.9 S 24 32 13 17 1020.6 1020.4 0.0
04/10:00pm 16.0 12.3 12.6 80 1.9 SSE 24 33 13 18 1020.5 1020.3 0.0
04/09:30pm 16.3 12.9 12.5 78 2.1 S 22 30 12 16 1020.3 1020.1 0.0
04/09:00pm 16.8 12.9 12.1 74 2.6 SSE 24 32 13 17 1020.3 1020.1 0.0
04/08:30pm 17.5 13.6 12.2 71 2.9 SSE 24 33 13 18 1020.2 1020.0 0.0
04/08:00pm 18.4 13.7 11.9 66 3.6 SSE 28 39 15 21 1019.9 1019.7 0.0
04/07:30pm 19.3 13.8 11.8 62 4.1 SE 32 41 17 22 1019.6 1019.4 0.0
04/07:00pm 20.1 14.5 12.1 60 4.5 SSE 33 41 18 22 1019.3 1019.1 0.0
04/06:30pm 20.5 15.0 11.7 57 4.9 SSE 32 44 17 24 1019.3 1019.1 0.0
04/06:00pm 21.0 15.7 11.3 54 5.4 SSE 30 39 16 21 1019.4 1019.2 0.0
04/05:30pm 21.5 16.9 10.9 51 5.8 SSE 26 39 14 21 1019.6 1019.4 0.0
04/05:00pm 21.4 15.5 10.6 50 5.9 SE 32 39 17 21 1019.7 1019.5 0.0
04/04:30pm 21.9 16.5 11.0 50 6.0 SSE 30 41 16 22 1019.8 1019.6 0.0
04/04:00pm 21.8 16.1 11.2 51 5.9 SE 32 44 17 24 1019.8 1019.6 0.0
04/03:30pm 21.2 15.0 10.1 49 6.0 SSE 33 46 18 25 1020.1 1019.9 0.0
04/03:00pm 22.1 16.2 10.6 48 6.3 SSE 32 44 17 24 1020.5 1020.3 0.0
04/02:30pm 21.6 15.9 11.0 51 5.8 SE 32 43 17 23 1020.7 1020.5 0.0
04/02:00pm 21.1 15.6 10.6 51 5.7 SSE 30 39 16 21 1021.2 1021.0 0.0
04/01:30pm 20.7 15.5 10.2 51 5.7 SSE 28 39 15 21 1021.5 1021.3 0.0
04/01:00pm 20.9 14.9 10.1 50 5.8 SE 32 44 17 24 1021.8 1021.6 0.0
04/12:30pm 20.1 14.9 10.2 53 5.3 SE 28 37 15 20 1022.0 1021.8 0.0
04/12:00pm 19.7 15.0 10.7 56 4.9 SE 26 35 14 19 1022.3 1022.1 0.0
04/11:30am 19.8 14.4 11.0 57 4.8 SE 30 43 16 23 1022.4 1022.2 0.0
04/11:00am 19.3 14.0 11.3 60 4.4 SE 30 44 16 24 1022.4 1022.2 0.0
04/10:30am 18.6 13.4 10.4 59 4.4 SE 28 37 15 20 1022.2 1022.0 0.0
04/10:00am 18.1 12.6 10.7 62 4.0 SE 30 37 16 20 1022.2 1022.0 0.0
04/09:30am 17.9 12.0 10.5 62 4.0 SSE 32 44 17 24 1022.0 1021.8 0.0
04/09:00am 17.4 12.7 10.8 65 3.5 SSE 26 35 14 19 1021.9 1021.7 0.0
04/08:30am 17.2 12.9 10.8 66 3.4 SSE 24 32 13 17 1021.8 1021.6 0.0
04/08:00am 16.7 13.2 11.0 69 3.1 SSE 20 26 11 14 1021.4 1021.2 0.0
04/07:30am 16.7 13.7 10.5 67 3.3 S 17 26 9 14 1021.2 1021.0 0.0
04/07:00am 16.6 13.6 10.7 68 3.2 SSE 17 24 9 13 1021.0 1020.8 0.0
04/06:30am 16.7 13.0 10.1 65 3.5 SE 20 24 11 13 1020.7 1020.5 0.0
04/06:00am 16.7 12.3 10.3 66 3.4 SE 24 35 13 19 1020.4 1020.2 0.0
04/05:30am 16.7 13.7 10.5 67 3.3 SSE 17 26 9 14 1020.2 1020.0 0.0
04/05:00am 16.7 12.7 10.3 66 3.4 SSE 22 28 12 15 1020.1 1019.9 0.0
04/04:30am 16.4 13.5 11.1 71 2.8 S 17 20 9 11 1020.0 1019.8 0.0
04/04:00am 16.4 13.9 11.1 71 2.9 S 15 17 8 9 1019.8 1019.6 0.0
04/03:30am 16.7 13.1 10.5 67 3.3 SSE 20 35 11 19 1019.8 1019.6 0.0
04/03:00am 16.6 13.1 10.9 69 3.1 SSE 20 28 11 15 1019.9 1019.7 0.0
04/02:30am 16.5 13.3 11.2 71 2.9 S 19 26 10 14 1019.8 1019.6 0.0
04/02:00am 16.3 14.1 12.1 76 2.3 S 15 20 8 11 1019.9 1019.7 0.0
04/01:30am 15.7 14.6 13.2 85 1.4 SSW 11 15 6 8 1019.6 1019.4 0.0
04/01:00am 15.4 13.7 13.6 89 1.0 S 15 19 8 10 1019.7 1019.5 0.0
04/12:30am 14.8 13.0 13.3 91 0.8 SSW 15 19 8 10 1019.8 1019.6 0.0
04/12:00am 14.0 12.4 12.7 92 0.7 SSW 13 15 7 8 1019.8 1019.6 0.0
 
Date/Time
CDT
Temp
°C
App
Temp
°C
Dew
Point
Rel
Hum
%
Delta-T
°C
Wind Press
QNH
hPa
Press
MSL
hPa
Rain
since 9 am
mm
Dir
 
Spd
km/h
Gust
km/h
Spd
kts
Gust
kts
03/11:30pm 14.1 12.0 12.5 90 0.9 S 15 19 8 10 1019.8 1019.6 0.0
03/11:00pm 14.2 12.0 12.2 88 1.1 S 15 19 8 10 1019.9 1019.7 0.0
03/10:30pm 14.7 12.4 11.8 83 1.6 S 15 19 8 10 1020.0 1019.8 0.0
03/10:00pm 15.4 13.1 11.8 79 2.0 S 15 19 8 10 1019.9 1019.7 0.0
03/09:30pm 16.4 13.4 11.8 74 2.5 SSE 19 26 10 14 1019.7 1019.5 0.0
03/09:00pm 16.9 13.7 11.8 72 2.8 SSE 20 26 11 14 1019.5 1019.3 0.0
03/08:30pm 17.5 13.9 11.8 69 3.1 SSE 22 30 12 16 1019.4 1019.2 0.0
03/08:00pm 18.3 14.0 10.9 62 4.0 SSE 24 32 13 17 1019.0 1018.8 0.0
03/07:30pm 19.0 13.8 10.3 57 4.7 SE 28 37 15 20 1018.4 1018.2 0.0
03/07:00pm 19.7 15.1 11.2 58 4.7 SSE 26 37 14 20 1017.9 1017.7 0.0
03/06:30pm 20.3 15.2 10.7 54 5.2 SSE 28 37 15 20 1017.5 1017.3 0.0
03/06:00pm 20.4 16.0 10.5 53 5.4 SSE 24 33 13 18 1017.3 1017.1 0.0
03/05:30pm 21.2 17.2 11.8 55 5.3 S 24 35 13 19 1017.2 1017.0 0.0
03/05:00pm 20.6 15.6 12.1 58 4.8 SE 30 43 16 23 1017.1 1016.9 0.0
03/04:30pm 21.2 17.2 11.8 55 5.3 SSE 24 33 13 18 1017.2 1017.0 0.0
03/04:00pm 20.6 15.8 11.5 56 5.0 SSE 28 39 15 21 1017.1 1016.9 0.0
03/03:30pm 20.9 17.1 12.3 58 4.8 SSE 24 32 13 17 1017.2 1017.0 0.0
03/03:00pm 20.0 15.2 13.0 64 4.0 SSE 30 37 16 20 1017.2 1017.0 0.0
03/02:42pm 19.6 15.2 12.8 65 3.8 SSE 28 46 15 25 1017.1 1016.9 0.0
03/02:30pm 20.9 16.8 12.6 59 4.7 SSE 26 33 14 18 1017.0 1016.8 0.0
03/02:00pm 21.2 17.0 11.0 52 5.6 S 24 35 13 19 1016.7 1016.5 0.0
03/01:30pm 21.3 16.8 11.3 53 5.5 S 26 33 14 18 1016.7 1016.5 0.0
03/01:00pm 21.1 15.8 11.4 54 5.4 S 30 43 16 23 1016.8 1016.6 0.0
03/12:30pm 20.8 16.9 12.0 57 4.9 S 24 33 13 18 1016.8 1016.6 0.0
03/12:00pm 20.5 15.7 11.7 57 4.9 SSW 28 37 15 20 1016.7 1016.5 0.0
03/11:30am 19.8 15.3 12.6 63 4.1 SSW 28 35 15 19 1016.6 1016.4 0.0
03/11:00am 20.4 16.6 13.6 65 3.9 SSW 26 39 14 21 1016.6 1016.4 0.0
03/10:30am 18.6 15.7 13.9 74 2.7 SSW 22 33 12 18 1016.5 1016.3 0.0
03/10:00am 18.6 15.9 14.5 77 2.4 SSW 22 30 12 16 1016.2 1016.0 0.0
03/09:30am 17.6 15.7 15.8 89 1.1 SW 20 24 11 13 1016.1 1015.9 0.0
03/09:00am 17.6 16.0 15.0 85 1.5 SSW 17 24 9 13 1015.9 1015.7 0.2

Other Formats:

Comma delimited format used in spreadsheet applications
http://www.bom.gov.au/fwo/IDS60801/IDS60801.95663.axf

JavaScript Object Notation format (JSON) in row-major order
http://www.bom.gov.au/fwo/IDS60801/IDS60801.95663.json